Time;durP1;ratioP1;P1;durP2;ratioP2;P2;SDS_P1;SDS_P2;PMS_P1;PMS_P2;Temp;Humidity;BMP_temperature;BMP_pressure;BME280_temperature;BME280_humidity;BME280_pressure;Samples;Min_cycle;Max_cycle;Signal;HPM_P1;HPM_P2
2021/12/31 00:00:06;;;;;;;29.00;16.00;;;;;;;3.45;100.00;101617.69;4973051;28;20184;-78
2021/12/31 00:02:31;;;;;;;28.03;15.63;;;;;;;3.48;100.00;101631.69;4972675;28;20560;-77
2021/12/31 00:04:57;;;;;;;30.70;16.20;;;;;;;3.39;100.00;101616.88;4987400;28;20170;-77
2021/12/31 00:07:22;;;;;;;30.53;15.50;;;;;;;3.30;100.00;101621.63;4973662;28;20225;-77
2021/12/31 00:09:48;;;;;;;30.90;16.60;;;;;;;3.53;100.00;101645.00;4991854;28;20249;-77
2021/12/31 00:12:14;;;;;;;31.47;17.33;;;;;;;3.30;100.00;101626.69;4976928;28;20177;-77
2021/12/31 00:14:39;;;;;;;30.70;16.60;;;;;;;3.54;100.00;101648.44;4959185;28;20178;-78
2021/12/31 00:17:06;;;;;;;28.60;16.87;;;;;;;3.56;100.00;101657.16;4977002;28;20205;-77
2021/12/31 00:19:36;;;;;;;31.23;15.67;;;;;;;3.53;100.00;101652.59;4976810;28;20204;-77
2021/12/31 00:22:17;;;;;;;33.70;17.17;;;;;;;3.57;100.00;101642.16;4976859;28;20226;-77
2021/12/31 00:24:42;;;;;;;29.87;15.43;;;;;;;3.66;100.00;101648.44;4976393;28;20161;-77
2021/12/31 00:27:08;;;;;;;27.23;16.17;;;;;;;3.69;100.00;101638.72;4976636;28;20234;-78
2021/12/31 00:29:33;;;;;;;31.00;16.57;;;;;;;3.76;100.00;101637.00;4976448;28;20186;-77
2021/12/31 00:31:59;;;;;;;29.43;16.40;;;;;;;3.70;100.00;101638.00;4976459;28;20186;-77
2021/12/31 00:34:24;;;;;;;27.50;15.47;;;;;;;3.71;100.00;101644.00;4976195;28;20249;-76
2021/12/31 00:36:50;;;;;;;26.37;15.40;;;;;;;3.78;100.00;101641.56;4976350;28;20209;-77
2021/12/31 00:39:16;;;;;;;26.50;15.17;;;;;;;3.79;100.00;101640.84;4976081;28;20186;-76
2021/12/31 00:41:42;;;;;;;28.83;16.57;;;;;;;3.74;100.00;101639.34;4976135;28;20178;-77
2021/12/31 00:44:08;;;;;;;28.17;14.67;;;;;;;3.82;100.00;101641.25;4976271;28;20174;-76
2021/12/31 00:46:34;;;;;;;26.40;15.10;;;;;;;3.75;100.00;101630.13;4975926;28;20189;-77
2021/12/31 00:49:02;;;;;;;26.47;14.87;;;;;;;3.81;100.00;101634.38;4975457;28;20185;-76
2021/12/31 00:51:28;;;;;;;22.17;13.80;;;;;;;3.75;100.00;101632.66;4976154;28;20178;-76
2021/12/31 00:53:54;;;;;;;25.67;13.73;;;;;;;3.60;100.00;101611.25;4975969;28;20229;-77
2021/12/31 00:56:19;;;;;;;24.40;13.77;;;;;;;3.72;100.00;101638.22;4975817;28;20213;-76
2021/12/31 00:58:45;;;;;;;22.87;12.93;;;;;;;3.70;100.00;101627.88;4976009;28;20227;-76
2021/12/31 01:01:17;;;;;;;25.07;13.43;;;;;;;3.72;100.00;101639.84;4975735;28;20257;-77
2021/12/31 01:03:42;;;;;;;23.30;14.20;;;;;;;3.62;100.00;101622.50;4990266;28;20158;-77
2021/12/31 01:06:08;;;;;;;29.03;15.13;;;;;;;3.73;100.00;101634.06;4975875;28;20610;-77
2021/12/31 01:08:33;;;;;;;25.77;14.33;;;;;;;3.44;100.00;101578.78;4975478;28;20662;-77
2021/12/31 01:10:59;;;;;;;25.17;14.20;;;;;;;3.58;100.00;101588.25;4976071;28;20178;-76
2021/12/31 01:13:33;;;;;;;23.40;13.23;;;;;;;3.81;100.00;101605.59;4975632;28;20191;-77
2021/12/31 01:16:01;;;;;;;22.33;12.93;;;;;;;3.76;100.00;101604.03;4958039;28;20293;-77
2021/12/31 01:19:44;;;;;;;23.13;13.00;;;;;;;3.66;100.00;101574.94;4975204;28;20174;-77
2021/12/31 01:21:13;;;;;;;20.00;12.57;;;;;;;3.78;100.00;101585.81;4975346;28;20181;-76
2021/12/31 01:23:38;;;;;;;19.77;11.97;;;;;;;3.30;100.00;101517.75;4975227;28;20268;-77
2021/12/31 01:26:04;;;;;;;20.07;12.50;;;;;;;3.78;100.00;101611.16;4958487;28;20256;-77
2021/12/31 01:28:30;;;;;;;21.30;12.67;;;;;;;3.82;100.00;101612.47;4975499;28;20627;-77
2021/12/31 01:30:55;;;;;;;19.80;12.17;;;;;;;3.75;100.00;101607.31;4975461;28;20196;-77
2021/12/31 01:33:21;;;;;;;22.53;13.53;;;;;;;3.70;100.00;101619.34;4975308;28;20174;-78
2021/12/31 01:35:46;;;;;;;20.70;12.70;;;;;;;3.80;100.00;101632.56;4975070;28;20638;-77
2021/12/31 01:38:12;;;;;;;20.03;12.37;;;;;;;3.82;100.00;101640.34;4975824;28;20237;-76
2021/12/31 01:40:37;;;;;;;22.10;12.60;;;;;;;3.51;100.00;101583.03;4975727;28;20182;-76
2021/12/31 01:43:03;;;;;;;22.13;13.20;;;;;;;3.83;100.00;101638.03;4975468;28;20181;-76
2021/12/31 01:45:32;;;;;;;20.97;13.07;;;;;;;3.67;100.00;101621.47;4975246;28;20171;-77
2021/12/31 01:48:08;;;;;;;23.20;13.10;;;;;;;3.92;100.00;101656.06;4975846;28;20178;-76
2021/12/31 01:50:33;;;;;;;19.93;11.93;;;;;;;3.98;100.00;101644.19;4975092;28;20165;-76
2021/12/31 01:53:00;;;;;;;19.67;11.90;;;;;;;4.03;100.00;101640.66;4974945;28;20198;-77
2021/12/31 01:55:30;;;;;;;21.03;12.80;;;;;;;3.77;100.00;101588.13;4975460;28;20181;-78
2021/12/31 01:57:57;;;;;;;18.97;12.07;;;;;;;4.07;99.44;101631.81;4975681;28;20276;-77
2021/12/31 02:00:22;;;;;;;20.13;12.40;;;;;;;4.13;99.05;101627.56;4975503;28;20257;-77
2021/12/31 02:02:48;;;;;;;23.00;12.33;;;;;;;4.13;98.21;101637.72;4990239;28;20273;-76
2021/12/31 02:05:15;;;;;;;19.90;11.50;;;;;;;4.11;98.69;101631.50;4974807;28;20682;-77
2021/12/31 02:07:40;;;;;;;20.13;12.10;;;;;;;4.09;98.55;101633.88;4974827;28;20232;-78
2021/12/31 02:10:07;;;;;;;18.93;12.80;;;;;;;3.70;99.60;101588.94;4991335;28;20178;-76
2021/12/31 02:12:34;;;;;;;21.23;12.90;;;;;;;4.14;99.19;101644.59;4996159;28;20197;-77
2021/12/31 02:15:01;;;;;;;20.57;13.10;;;;;;;4.03;98.65;101629.63;4997069;28;20182;-76
2021/12/31 02:17:26;;;;;;;20.50;12.63;;;;;;;4.16;99.15;101644.09;4999434;28;20272;-76
2021/12/31 02:20:05;;;;;;;19.17;11.57;;;;;;;4.24;98.40;101637.50;5000251;28;20170;-77
2021/12/31 02:22:34;;;;;;;16.97;11.57;;;;;;;4.10;98.03;101623.00;4998269;28;20165;-78
2021/12/31 02:25:00;;;;;;;18.47;11.90;;;;;;;4.07;98.21;101624.22;4998151;28;20194;-76
2021/12/31 02:27:26;;;;;;;17.93;11.90;;;;;;;3.98;99.09;101611.22;4994672;28;20277;-77
2021/12/31 02:29:52;;;;;;;18.73;11.97;;;;;;;3.95;99.67;101605.75;4990824;28;20206;-76
2021/12/31 02:32:17;;;;;;;19.27;12.17;;;;;;;4.01;100.00;101614.19;4990193;28;20191;-75
2021/12/31 02:34:44;;;;;;;17.67;10.63;;;;;;;3.92;100.00;101611.38;4991987;28;20182;-76
2021/12/31 02:37:10;;;;;;;19.17;11.23;;;;;;;3.98;100.00;101615.41;4989504;28;20213;-74
2021/12/31 02:39:38;;;;;;;16.73;11.10;;;;;;;3.83;100.00;101582.25;4994240;28;20237;-75
2021/12/31 02:42:05;;;;;;;17.80;11.13;;;;;;;3.89;100.00;101603.34;4996634;28;20189;-75
2021/12/31 02:44:31;;;;;;;17.27;10.83;;;;;;;3.79;100.00;101599.38;4991374;28;20202;-75
2021/12/31 02:46:57;;;;;;;18.97;11.03;;;;;;;3.80;100.00;101607.22;4985552;28;20182;-75
2021/12/31 02:49:24;;;;;;;15.77;9.77;;;;;;;3.82;100.00;101612.47;4977450;28;20264;-77
2021/12/31 02:51:50;;;;;;;17.93;11.30;;;;;;;3.54;100.00;101562.28;4977288;28;20205;-76
2021/12/31 02:54:15;;;;;;;18.53;11.10;;;;;;;3.69;100.00;101594.72;4979849;28;20654;-75
2021/12/31 02:56:44;;;;;;;14.60;9.90;;;;;;;3.81;100.00;101614.09;4982083;28;20201;-76
2021/12/31 02:59:10;;;;;;;18.97;11.77;;;;;;;3.87;100.00;101619.06;4973901;28;20201;-76
2021/12/31 03:01:36;;;;;;;16.70;10.70;;;;;;;3.85;100.00;101623.91;4973668;28;20556;-76
2021/12/31 03:04:03;;;;;;;17.73;10.80;;;;;;;3.85;100.00;101608.72;4973379;28;20180;-77
2021/12/31 03:06:30;;;;;;;19.23;11.83;;;;;;;3.87;100.00;101622.50;4974776;28;20654;-76
2021/12/31 03:08:57;;;;;;;19.33;11.63;;;;;;;3.99;100.00;101648.59;4974017;28;20174;-75
2021/12/31 03:11:24;;;;;;;19.33;11.40;;;;;;;4.04;100.00;101659.31;4973822;28;20174;-75
2021/12/31 03:13:54;;;;;;;18.87;11.73;;;;;;;3.90;100.00;101634.69;4974561;28;20244;-77
2021/12/31 03:16:23;;;;;;;19.77;10.83;;;;;;;4.04;100.00;101626.34;4988736;28;20213;-77
2021/12/31 03:18:50;;;;;;;19.93;11.73;;;;;;;4.03;100.00;101640.66;4974025;28;20186;-76
2021/12/31 03:21:22;;;;;;;17.43;11.07;;;;;;;3.87;100.00;101619.06;4974627;28;20272;-75
2021/12/31 03:23:50;;;;;;;17.90;12.07;;;;;;;3.66;100.00;101589.25;4975151;28;20172;-76
2021/12/31 03:26:16;;;;;;;19.70;12.27;;;;;;;4.10;100.00;101657.59;4973381;28;20559;-75
2021/12/31 03:28:41;;;;;;;18.73;11.73;;;;;;;3.90;100.00;101622.91;4972834;28;20178;-75
2021/12/31 03:31:07;;;;;;;22.00;12.30;;;;;;;4.13;100.00;101637.72;4973358;28;20188;-76
2021/12/31 03:33:32;;;;;;;19.53;11.60;;;;;;;4.12;100.00;101634.28;4973087;28;20269;-76
2021/12/31 03:35:58;;;;;;;22.60;12.73;;;;;;;4.15;100.00;101648.97;4972845;28;20231;-77
2021/12/31 03:38:23;;;;;;;23.93;11.93;;;;;;;4.06;100.00;101643.59;4973228;28;20170;-76
2021/12/31 03:40:50;;;;;;;22.43;12.20;;;;;;;4.12;100.00;101652.03;4973511;28;20178;-75
2021/12/31 03:43:15;;;;;;;22.73;11.97;;;;;;;4.24;100.00;101659.44;4988458;28;20217;-75
2021/12/31 03:45:41;;;;;;;22.80;12.87;;;;;;;4.30;100.00;101661.16;4973105;28;20186;-76
2021/12/31 03:48:06;;;;;;;20.07;12.30;;;;;;;4.34;100.00;101673.50;4973143;28;20638;-77
2021/12/31 03:50:32;;;;;;;21.20;13.33;;;;;;;4.18;100.00;101667.16;4972809;28;20649;-77
2021/12/31 03:52:58;;;;;;;22.97;13.57;;;;;;;4.39;100.00;101686.78;4973223;28;20286;-76
2021/12/31 03:55:23;;;;;;;21.93;13.40;;;;;;;4.24;100.00;101639.13;4972791;28;20182;-77
2021/12/31 03:57:49;;;;;;;20.97;12.20;;;;;;;4.58;100.00;101669.84;4972678;28;20217;-74
2021/12/31 04:00:15;;;;;;;19.63;12.33;;;;;;;4.61;100.00;101668.59;4973090;28;20185;-76
2021/12/31 04:02:40;;;;;;;18.57;12.43;;;;;;;4.65;98.93;101664.84;4973013;28;20264;-75
2021/12/31 04:05:06;;;;;;;21.60;12.20;;;;;;;4.63;99.18;101679.84;4972805;28;20612;-76
2021/12/31 04:07:32;;;;;;;19.17;11.97;;;;;;;4.44;99.98;101635.03;4972375;28;20386;-76
2021/12/31 04:09:58;;;;;;;25.67;13.23;;;;;;;4.63;99.54;101658.63;4972983;28;20186;-76
2021/12/31 04:12:23;;;;;;;20.00;11.00;;;;;;;4.60;99.18;101648.97;4972786;28;20182;-76
2021/12/31 04:14:49;;;;;;;17.53;11.57;;;;;;;4.56;99.47;101644.25;4973147;28;20185;-75
2021/12/31 04:17:14;;;;;;;19.40;10.90;;;;;;;4.52;100.00;101644.56;4972578;28;20716;-76
2021/12/31 04:19:41;;;;;;;15.53;10.70;;;;;;;4.51;99.55;101624.94;4973005;28;20174;-76
2021/12/31 04:22:08;;;;;;;15.50;10.70;;;;;;;4.52;100.00;101630.97;4973086;28;20257;-75
2021/12/31 04:27:09;;;;;;;16.67;10.63;;;;;;;4.46;100.00;101635.25;4972810;28;20158;-76
2021/12/31 04:29:35;;;;;;;21.30;11.57;;;;;;;4.64;99.37;101657.91;4987048;28;20178;-77
2021/12/31 04:32:01;;;;;;;18.20;11.13;;;;;;;4.58;99.32;101644.44;4972237;28;20193;-76
2021/12/31 04:34:27;;;;;;;18.30;11.67;;;;;;;4.56;99.49;101638.25;4972339;28;20203;-76
2021/12/31 04:36:53;;;;;;;19.17;11.80;;;;;;;4.54;99.24;101617.72;4972018;28;20197;-75
2021/12/31 04:39:19;;;;;;;18.43;11.53;;;;;;;4.54;99.12;101637.13;4972428;28;20178;-75
2021/12/31 04:41:44;;;;;;;19.43;11.47;;;;;;;4.48;99.52;101621.09;4972260;28;20560;-77
2021/12/31 04:44:10;;;;;;;19.67;11.60;;;;;;;4.59;98.64;101642.09;4972229;28;20580;-75
2021/12/31 04:46:35;;;;;;;17.97;11.67;;;;;;;4.47;98.83;101620.19;4972335;28;20185;-76
2021/12/31 04:49:01;;;;;;;17.57;11.97;;;;;;;4.51;99.58;101630.03;4972034;28;20730;-76
2021/12/31 04:51:26;;;;;;;19.27;11.43;;;;;;;4.50;98.96;101623.13;4972166;28;20233;-76
2021/12/31 04:53:52;;;;;;;17.80;11.63;;;;;;;4.62;98.85;101628.91;4956829;28;20193;-76
2021/12/31 04:56:17;;;;;;;17.57;10.90;;;;;;;4.01;98.11;101516.91;4975885;28;20579;-76
2021/12/31 04:58:43;;;;;;;18.90;12.07;;;;;;;4.56;98.33;101612.88;4975571;28;20571;-76
2021/12/31 05:01:08;;;;;;;19.00;10.97;;;;;;;4.61;99.24;101620.38;4975762;28;20214;-76
2021/12/31 05:03:34;;;;;;;18.57;11.87;;;;;;;4.59;99.16;101626.88;4975499;28;20189;-75
2021/12/31 05:06:00;;;;;;;21.40;12.50;;;;;;;4.65;99.04;101623.31;4975405;28;20197;-76
2021/12/31 05:08:25;;;;;;;20.73;13.00;;;;;;;4.73;98.31;101628.63;4975267;28;20225;-76
2021/12/31 05:10:51;;;;;;;21.53;13.33;;;;;;;4.35;98.00;101555.16;4958377;28;20234;-76
2021/12/31 05:13:19;;;;;;;24.07;14.30;;;;;;;4.73;98.36;101623.56;4975556;28;20182;-76
2021/12/31 05:15:46;;;;;;;22.53;13.83;;;;;;;4.77;97.18;101613.09;4975321;28;20762;-75
2021/12/31 05:18:13;;;;;;;23.10;13.33;;;;;;;4.74;97.43;101605.09;4975388;28;20178;-77
2021/12/31 05:20:38;;;;;;;18.70;12.10;;;;;;;4.82;96.10;101604.44;4975692;28;20229;-76
2021/12/31 05:23:04;;;;;;;23.80;12.53;;;;;;;4.88;96.20;101627.16;4958244;28;20649;-76
2021/12/31 05:25:29;;;;;;;23.40;13.23;;;;;;;4.89;97.09;101617.91;4975227;28;20524;-76
2021/12/31 05:27:55;;;;;;;23.40;15.13;;;;;;;4.76;96.57;101603.63;4974984;28;20268;-75
2021/12/31 05:30:21;;;;;;;24.83;16.10;;;;;;;4.99;95.09;101641.25;4974860;28;20177;-76
2021/12/31 05:32:47;;;;;;;23.53;14.23;;;;;;;4.70;94.69;101566.41;4975342;28;20178;-75
2021/12/31 05:35:13;;;;;;;25.20;15.30;;;;;;;4.99;94.65;101623.47;4975873;28;20269;-75
2021/12/31 05:37:39;;;;;;;26.83;15.00;;;;;;;4.96;94.65;101629.06;4975679;28;20288;-75
2021/12/31 05:40:05;;;;;;;20.75;12.60;;;;;;;4.88;95.48;101633.88;4976681;28;20209;-74
2021/12/31 05:42:30;;;;;;;22.60;11.88;;;;;;;4.69;95.92;101611.19;4976208;28;20181;-76
2021/12/31 05:44:56;;;;;;;17.43;10.80;;;;;;;4.82;96.43;101642.50;4975986;28;20174;-75
2021/12/31 05:47:22;;;;;;;20.52;12.15;;;;;;;4.69;96.78;101636.56;4975060;28;20186;-77
2021/12/31 05:49:49;;;;;;;19.10;12.53;;;;;;;4.65;97.77;101641.06;4975052;28;20232;-75
2021/12/31 05:52:15;;;;;;;22.07;14.07;;;;;;;4.58;97.75;101630.13;4975454;28;20177;-77
2021/12/31 05:54:40;;;;;;;23.00;15.07;;;;;;;4.54;97.99;101634.59;4975374;28;20178;-76
2021/12/31 05:57:06;;;;;;;21.77;13.73;;;;;;;4.56;99.18;101635.72;4975083;28;20244;-76
2021/12/31 05:59:31;;;;;;;25.03;14.77;;;;;;;4.56;100.00;101639.16;4957649;28;20197;-76
2021/12/31 06:01:57;;;;;;;19.10;12.80;;;;;;;4.57;99.65;101640.97;4974826;28;20268;-76
2021/12/31 06:04:23;;;;;;;25.37;15.70;;;;;;;4.56;99.93;101641.69;4974023;28;20646;-76
2021/12/31 06:06:50;;;;;;;34.63;18.47;;;;;;;4.60;99.41;101651.53;4957426;28;20250;-77
2021/12/31 06:09:16;;;;;;;30.27;16.37;;;;;;;4.49;99.43;101635.63;4974421;28;20225;-76
2021/12/31 06:11:42;;;;;;;32.80;17.33;;;;;;;4.53;100.00;101658.16;4974465;28;20170;-77
2021/12/31 06:14:11;;;;;;;35.27;17.30;;;;;;;4.50;100.00;101652.69;4974532;28;20173;-76
2021/12/31 06:16:41;;;;;;;38.30;21.02;;;;;;;4.52;100.00;101659.78;4974166;28;20700;-74
2021/12/31 06:19:09;;;;;;;31.57;18.50;;;;;;;4.50;100.00;101661.19;4974711;28;20162;-76
2021/12/31 06:21:35;;;;;;;31.27;17.53;;;;;;;4.42;100.00;101659.28;4974830;28;20193;-78
2021/12/31 06:24:02;;;;;;;33.90;19.33;;;;;;;4.34;100.00;101642.16;4974607;28;20205;-76
2021/12/31 06:26:28;;;;;;;34.47;19.30;;;;;;;4.45;100.00;101648.63;4974216;28;20689;-78
2021/12/31 06:28:53;;;;;;;39.07;20.00;;;;;;;4.48;100.00;101655.00;4974491;28;20166;-76
2021/12/31 06:31:19;;;;;;;41.23;20.67;;;;;;;4.52;100.00;101657.25;4974491;28;20181;-81
2021/12/31 06:33:44;;;;;;;39.70;20.47;;;;;;;4.53;100.00;101658.16;4974516;28;20205;-78
2021/12/31 06:36:10;;;;;;;32.30;17.17;;;;;;;4.51;100.00;101655.41;4974669;28;20233;-77
2021/12/31 06:38:35;;;;;;;35.50;17.77;;;;;;;4.43;100.00;101645.00;4977070;28;20193;-81
2021/12/31 06:41:01;;;;;;;33.20;17.30;;;;;;;4.53;100.00;101650.53;4961795;28;20189;-80
2021/12/31 06:43:26;;;;;;;30.67;16.93;;;;;;;4.47;100.00;101643.03;4978240;28;20189;-78
2021/12/31 06:45:52;;;;;;;30.70;15.90;;;;;;;4.58;100.00;101668.19;4978844;28;20205;-78
2021/12/31 06:48:17;;;;;;;29.23;15.67;;;;;;;4.61;100.00;101666.06;4981413;28;20188;-77
2021/12/31 06:50:43;;;;;;;30.47;16.60;;;;;;;4.75;100.00;101674.56;4978749;28;20707;-79
2021/12/31 06:53:08;;;;;;;32.53;17.80;;;;;;;4.47;100.00;101612.59;4976844;28;20185;-78
2021/12/31 06:55:34;;;;;;;28.80;16.20;;;;;;;4.82;100.00;101669.53;4975416;28;20744;-77
2021/12/31 06:57:59;;;;;;;26.53;15.77;;;;;;;4.81;100.00;101657.56;4974702;28;20296;-78
2021/12/31 07:00:25;;;;;;;24.43;15.03;;;;;;;4.85;100.00;101649.63;4976796;28;20205;-75
2021/12/31 07:02:51;;;;;;;32.90;18.17;;;;;;;4.82;100.00;101645.06;4960113;28;20184;-77
2021/12/31 07:05:17;;;;;;;31.70;18.87;;;;;;;4.91;100.00;101650.41;4979732;28;20201;-77
2021/12/31 07:07:42;;;;;;;35.50;18.33;;;;;;;4.99;100.00;101661.59;4982881;28;20241;-76
2021/12/31 07:10:08;;;;;;;35.13;17.57;;;;;;;4.85;100.00;101629.31;4982990;28;20245;-78
2021/12/31 07:12:33;;;;;;;48.67;20.63;;;;;;;5.05;100.00;101665.81;4959980;28;20186;-77
2021/12/31 07:14:59;;;;;;;37.95;21.08;;;;;;;5.17;100.00;101665.53;4974702;28;20182;-80
2021/12/31 07:17:28;;;;;;;37.30;19.93;;;;;;;5.30;100.00;101664.78;4955853;28;20293;-76
2021/12/31 07:19:53;;;;;;;32.93;19.87;;;;;;;5.39;99.30;101671.72;4973224;28;20198;-77
2021/12/31 07:22:19;;;;;;;32.55;17.65;;;;;;;5.55;97.66;101665.34;4973271;28;20662;-76
2021/12/31 07:24:44;;;;;;;34.17;19.75;;;;;;;5.59;97.44;101661.56;4972751;28;20174;-76
2021/12/31 07:27:10;;;;;;;32.97;18.60;;;;;;;5.70;96.52;101653.63;4973354;28;20236;-76
2021/12/31 07:29:36;;;;;;;35.17;18.85;;;;;;;5.77;96.19;101657.16;4973626;28;20170;-76
2021/12/31 07:32:01;;;;;;;38.90;19.65;;;;;;;5.69;95.84;101650.19;4973031;28;20674;-76
2021/12/31 07:34:27;;;;;;;34.58;19.75;;;;;;;5.79;96.14;101650.66;4972924;28;20170;-77
2021/12/31 07:36:52;;;;;;;31.40;17.30;;;;;;;5.68;95.56;101609.31;4972749;28;20673;-77
2021/12/31 07:39:20;;;;;;;30.13;17.63;;;;;;;6.04;95.27;101646.06;4972561;28;20232;-76
2021/12/31 07:41:46;;;;;;;28.58;16.95;;;;;;;6.17;94.06;101646.00;4972258;28;20237;-77
2021/12/31 07:44:11;;;;;;;26.35;15.32;;;;;;;6.17;92.47;101615.47;4972879;28;20190;-77
2021/12/31 07:46:37;;;;;;;27.02;16.50;;;;;;;5.84;92.34;101553.66;4972484;28;20196;-77
2021/12/31 07:49:02;;;;;;;25.00;14.60;;;;;;;6.34;94.22;101642.97;4972484;28;20197;-79
2021/12/31 07:51:28;;;;;;;26.98;16.60;;;;;;;6.46;94.04;101636.84;4972503;28;20268;-78
2021/12/31 07:53:53;;;;;;;29.35;18.00;;;;;;;6.46;92.12;101606.28;4972775;28;20166;-80
2021/12/31 07:56:19;;;;;;;28.88;17.40;;;;;;;6.71;90.74;101628.91;4972459;28;20260;-78
2021/12/31 07:58:48;;;;;;;28.67;15.90;;;;;;;6.77;90.05;101626.19;4972647;28;20204;-82
2021/12/31 08:01:14;;;;;;;26.88;16.08;;;;;;;6.81;90.52;101624.94;4987171;28;20610;-79
2021/12/31 08:03:39;;;;;;;28.45;15.00;;;;;;;6.75;89.07;101591.97;4973351;28;20170;-81
2021/12/31 08:06:05;;;;;;;31.70;18.08;;;;;;;6.94;89.35;101606.19;4972777;28;20185;-76
2021/12/31 08:08:31;;;;;;;28.67;18.10;;;;;;;6.56;87.94;101526.81;4972296;28;20226;-77
2021/12/31 08:10:56;;;;;;;26.95;15.55;;;;;;;6.71;88.25;101536.31;4955371;28;20181;-78
2021/12/31 08:13:23;;;;;;;24.80;16.15;;;;;;;6.99;88.16;101588.03;4972475;28;20174;-78
2021/12/31 08:15:48;;;;;;;27.58;16.25;;;;;;;7.11;87.79;101609.88;4972481;28;20178;-80
2021/12/31 08:18:14;;;;;;;25.50;15.10;;;;;;;7.23;87.25;101610.41;4972247;28;20197;-78
2021/12/31 08:20:40;;;;;;;24.05;15.63;;;;;;;7.01;87.06;101566.16;4972250;28;20175;-80
2021/12/31 08:23:10;;;;;;;27.38;15.20;;;;;;;7.44;86.59;101623.16;4971965;28;20565;-78
2021/12/31 08:25:39;;;;;;;27.25;16.05;;;;;;;7.50;86.35;101610.22;4972206;28;20185;-76
2021/12/31 08:28:05;;;;;;;27.27;16.00;;;;;;;7.59;86.90;101624.06;4972771;28;20178;-77
2021/12/31 08:30:31;;;;;;;26.75;14.77;;;;;;;7.08;85.93;101495.72;4975935;28;20178;-78
2021/12/31 08:32:57;;;;;;;24.30;13.70;;;;;;;7.73;84.80;101597.63;4975794;28;20210;-79
2021/12/31 08:35:24;;;;;;;30.50;16.90;;;;;;;7.96;84.00;101628.38;4975918;28;20203;-81
2021/12/31 08:37:51;;;;;;;31.50;18.60;;;;;;;7.64;83.52;101567.75;4976478;28;20208;-83
2021/12/31 08:40:16;;;;;;;21.17;13.63;;;;;;;8.05;82.88;101615.03;4977967;28;20181;-84
2021/12/31 08:42:42;;;;;;;19.15;12.07;;;;;;;8.07;82.59;101628.00;4961643;28;20186;-79
2021/12/31 08:45:09;;;;;;;19.13;11.13;;;;;;;8.13;82.77;101628.69;4978276;28;20174;-84
2021/12/31 08:47:35;;;;;;;19.05;12.15;;;;;;;8.02;81.97;101594.25;4997349;28;20209;-84
2021/12/31 08:50:01;;;;;;;24.48;13.38;;;;;;;8.16;82.29;101633.22;5002257;28;20170;-85
2021/12/31 08:52:26;;;;;;;17.10;10.68;;;;;;;8.03;81.81;101611.38;5000912;28;20174;-86
2021/12/31 08:54:51;;;;;;;18.45;10.55;;;;;;;8.06;82.14;101604.09;4997543;28;20200;-85
2021/12/31 08:57:17;;;;;;;15.25;9.60;;;;;;;7.85;81.43;101569.34;4989990;28;20214;-80
2021/12/31 08:59:43;;;;;;;15.18;9.32;;;;;;;7.82;81.48;101565.53;4993053;28;20174;-86
2021/12/31 09:02:10;;;;;;;16.27;10.20;;;;;;;7.89;81.91;101580.81;5007901;28;20201;-79
2021/12/31 09:04:35;;;;;;;16.65;10.38;;;;;;;7.95;82.88;101601.94;4989815;28;20189;-86
2021/12/31 09:07:01;;;;;;;17.83;9.50;;;;;;;7.83;82.22;101609.06;4993087;28;20230;-81
2021/12/31 09:09:26;;;;;;;15.95;10.38;;;;;;;7.63;83.28;101598.16;4981702;28;20185;-80
2021/12/31 09:11:54;;;;;;;15.20;10.40;;;;;;;7.56;82.90;101591.44;4977006;28;20189;-85
2021/12/31 09:14:20;;;;;;;19.23;12.15;;;;;;;7.60;81.66;101605.47;4978344;28;20224;-83
2021/12/31 09:16:47;;;;;;;17.50;10.52;;;;;;;7.51;82.18;101623.16;4960551;28;20202;-85
2021/12/31 09:19:13;;;;;;;18.90;11.70;;;;;;;7.14;82.42;101560.19;4977940;28;20186;-85
2021/12/31 09:21:39;;;;;;;19.23;11.52;;;;;;;7.36;82.73;101599.31;4988665;28;20220;-84
2021/12/31 09:24:05;;;;;;;20.50;12.40;;;;;;;7.41;83.17;101602.38;4996481;28;20202;-84
2021/12/31 09:26:30;;;;;;;20.00;11.82;;;;;;;7.14;82.40;101555.06;4996660;28;20193;-84
2021/12/31 09:28:56;;;;;;;19.17;11.88;;;;;;;7.20;82.20;101554.00;4984880;28;20804;-84
2021/12/31 09:31:21;;;;;;;18.33;11.30;;;;;;;6.73;82.31;101471.19;4996604;28;20213;-83
2021/12/31 09:33:49;;;;;;;18.15;11.75;;;;;;;7.27;81.72;101544.69;4993901;28;20186;-83
2021/12/31 09:36:15;;;;;;;18.77;11.68;;;;;;;7.67;82.45;101602.03;4994463;28;20200;-83
2021/12/31 09:38:40;;;;;;;21.35;12.32;;;;;;;7.79;82.11;101604.38;5000135;28;20182;-83
2021/12/31 09:41:06;;;;;;;22.25;12.73;;;;;;;7.80;81.61;101579.75;5000331;28;20184;-84
2021/12/31 09:43:33;;;;;;;16.42;11.43;;;;;;;8.16;83.30;101600.97;4983506;28;20166;-84
2021/12/31 09:45:58;;;;;;;18.52;11.05;;;;;;;8.52;78.92;101581.31;4999765;28;20166;-85
2021/12/31 09:48:25;;;;;;;18.33;10.52;;;;;;;8.20;77.02;101478.03;5000274;28;20166;-86
2021/12/31 09:50:55;;;;;;;12.95;9.50;;;;;;;8.37;76.60;101479.03;5016412;28;20255;-86
2021/12/31 09:53:22;;;;;;;17.65;10.88;;;;;;;9.00;74.94;101563.63;4999504;28;20173;-86
2021/12/31 09:55:54;;;;;;;20.88;10.73;;;;;;;9.15;74.83;101575.56;5000637;28;20189;-83
2021/12/31 09:58:24;;;;;;;17.73;11.80;;;;;;;9.21;75.36;101560.00;4983968;28;20186;-83
2021/12/31 10:00:54;;;;;;;15.10;10.95;;;;;;;8.90;74.01;101473.91;5000653;28;20162;-84
2021/12/31 10:03:26;;;;;;;18.05;11.75;;;;;;;9.49;73.68;101556.25;5000572;28;20170;-85
2021/12/31 10:05:54;;;;;;;15.57;10.88;;;;;;;9.40;74.28;101522.91;4997798;28;20198;-83
2021/12/31 10:08:25;;;;;;;15.45;10.02;;;;;;;9.41;72.80;101508.50;4996946;28;20689;-84
2021/12/31 10:11:11;;;;;;;14.68;9.30;;;;;;;9.92;72.10;101540.44;5000332;28;20165;-84
2021/12/31 10:13:40;;;;;;;15.00;10.07;;;;;;;9.72;71.09;101492.25;4999161;28;20162;-83
2021/12/31 10:16:18;;;;;;;15.77;9.95;;;;;;;9.95;70.71;101505.81;4997403;28;20225;-84
2021/12/31 10:18:43;;;;;;;14.38;9.30;;;;;;;10.21;68.72;101507.69;4996985;28;20531;-86
2021/12/31 10:21:09;;;;;;;14.30;9.85;;;;;;;10.28;69.07;101538.38;4975153;28;20174;-87
2021/12/31 10:23:38;;;;;;;14.07;9.77;;;;;;;10.42;68.89;101531.22;4996922;28;20177;-87
2021/12/31 10:26:14;;;;;;;16.35;9.80;;;;;;;10.57;67.82;101522.59;4998388;28;20225;-85
2021/12/31 10:28:57;;;;;;;17.35;9.90;;;;;;;10.37;67.06;101498.34;4998399;28;20254;-83
2021/12/31 10:31:23;;;;;;;15.07;9.85;;;;;;;10.37;67.35;101517.91;4992429;28;20241;-80
2021/12/31 10:33:49;;;;;;;12.65;9.05;;;;;;;10.00;67.48;101478.16;4988101;28;20185;-81
2021/12/31 10:36:36;;;;;;;12.93;9.07;;;;;;;10.08;68.82;101490.13;4981341;28;20233;-83
2021/12/31 10:39:16;;;;;;;14.15;9.10;;;;;;;10.21;68.72;101482.06;4983740;28;20201;-88
2021/12/31 10:41:42;;;;;;;26.98;12.55;;;;;;;10.07;68.29;101447.34;4979779;28;20264;-86
2021/12/31 10:44:07;;;;;;;20.83;10.35;;;;;;;10.05;67.60;101440.22;4959958;28;20653;-81
2021/12/31 10:46:32;;;;;;;12.93;9.23;;;;;;;9.70;67.04;101406.72;4976242;28;20686;-83
2021/12/31 10:49:06;;;;;;;18.27;10.52;;;;;;;10.02;66.91;101489.47;4976281;28;20178;-82
2021/12/31 10:51:38;;;;;;;15.55;10.05;;;;;;;9.88;66.66;101487.09;4975822;28;20327;-85
2021/12/31 10:54:47;;;;;;;15.60;9.95;;;;;;;9.82;67.43;101489.91;4975560;28;20178;-82
2021/12/31 10:57:36;;;;;;;20.92;10.38;;;;;;;9.46;68.42;101444.28;4988700;28;20220;-81
2021/12/31 11:00:05;;;;;;;16.13;10.15;;;;;;;9.64;68.50;101472.59;4974717;28;20261;-82
2021/12/31 11:02:36;;;;;;;24.15;12.65;;;;;;;9.55;69.46;101457.16;4974429;28;20175;-83
2021/12/31 11:05:02;;;;;;;17.95;10.32;;;;;;;9.40;68.78;101428.25;4974342;28;20593;-83
2021/12/31 11:07:29;;;;;;;22.65;11.50;;;;;;;9.35;69.85;101438.75;4959291;28;20216;-80
2021/12/31 11:09:59;;;;;;;18.40;10.88;;;;;;;9.38;70.17;101464.69;4977585;28;20183;-80
2021/12/31 11:12:28;;;;;;;22.58;12.10;;;;;;;9.34;70.68;101465.97;5005358;28;20570;-83
2021/12/31 11:14:54;;;;;;;21.40;12.40;;;;;;;9.07;70.17;101456.22;4992903;28;20174;-80